createdAt,value
2022-07-31T00:00:13.697Z,89.98
2022-07-31T00:02:40.479Z,90.20
2022-07-31T00:05:07.995Z,90.60
2022-07-31T00:07:34.795Z,90.84
2022-07-31T00:10:01.805Z,90.57
2022-07-31T00:12:28.633Z,89.89
2022-07-31T00:14:55.586Z,89.54
2022-07-31T00:17:22.377Z,88.83
2022-07-31T00:19:49.168Z,88.73
2022-07-31T00:22:16.166Z,89.84
2022-07-31T00:24:43.011Z,90.88
2022-07-31T00:27:10.946Z,91.25
2022-07-31T00:29:38.720Z,91.88
2022-07-31T00:32:06.183Z,91.70
2022-07-31T00:34:33.112Z,91.01
2022-07-31T00:37:00.073Z,89.89
2022-07-31T00:39:27.106Z,88.94
2022-07-31T00:41:55.183Z,88.59
2022-07-31T00:44:22.018Z,88.42
2022-07-31T00:46:49.961Z,87.96
2022-07-31T00:49:16.822Z,87.78
2022-07-31T00:51:43.709Z,88.06
2022-07-31T00:54:22.357Z,88.80
2022-07-31T00:56:51.447Z,89.76
2022-07-31T00:59:24.474Z,90.01
2022-07-31T01:01:51.886Z,89.52
2022-07-31T01:04:19.889Z,89.28
2022-07-31T01:06:47.311Z,91.34
2022-07-31T01:09:15.159Z,92.67
2022-07-31T01:11:50.995Z,92.80
2022-07-31T01:14:20.689Z,93.45
2022-07-31T01:16:50.363Z,93.97
2022-07-31T01:19:42.712Z,94.06
2022-07-31T01:22:42.773Z,92.45
2022-07-31T01:25:23.741Z,93.50
2022-07-31T01:28:30.623Z,92.48
2022-07-31T01:31:25.638Z,94.02
2022-07-31T01:34:11.694Z,93.61
2022-07-31T01:36:46.493Z,94.42
2022-07-31T01:39:13.455Z,93.72
2022-07-31T01:41:43.574Z,94.67
2022-07-31T01:44:14.203Z,94.75
2022-07-31T01:46:43.848Z,94.26
2022-07-31T01:49:11.969Z,93.87
2022-07-31T01:51:41.119Z,94.34
2022-07-31T01:54:08.987Z,93.44
2022-07-31T01:56:36.751Z,93.66
2022-07-31T01:59:05.278Z,94.32
2022-07-31T02:01:53.511Z,94.71
2022-07-31T02:04:21.814Z,94.88
2022-07-31T02:06:50.449Z,94.08
2022-07-31T02:09:20.857Z,93.60
2022-07-31T02:11:54.379Z,94.37
2022-07-31T02:14:36.293Z,94.00
2022-07-31T02:17:03.537Z,94.09
2022-07-31T02:19:31.141Z,93.17
2022-07-31T02:21:59.951Z,92.45
2022-07-31T02:24:26.938Z,93.04
2022-07-31T02:26:54.485Z,92.68
2022-07-31T02:29:23.095Z,93.95
2022-07-31T02:32:02.502Z,94.05
2022-07-31T02:34:32.596Z,94.06
2022-07-31T02:37:02.281Z,93.61
2022-07-31T02:39:31.356Z,93.65
2022-07-31T02:42:01.910Z,93.75
2022-07-31T02:44:32.387Z,93.17
2022-07-31T02:47:02.571Z,92.93
2022-07-31T02:49:31.950Z,92.78
2022-07-31T02:51:58.977Z,92.18
2022-07-31T02:54:26.484Z,92.18
2022-07-31T02:56:53.781Z,92.74
2022-07-31T02:59:22.461Z,92.75
2022-07-31T03:01:49.237Z,93.44
2022-07-31T03:04:16.101Z,93.75
2022-07-31T03:06:43.524Z,93.67
2022-07-31T03:09:10.423Z,93.18
2022-07-31T03:11:37.409Z,92.97
2022-07-31T03:14:05.598Z,93.37
2022-07-31T03:16:34.181Z,93.44
2022-07-31T03:19:03.068Z,93.27
2022-07-31T03:21:31.597Z,92.32
2022-07-31T03:23:59.908Z,91.56
2022-07-31T03:26:27.272Z,92.05
2022-07-31T03:28:54.515Z,93.53
2022-07-31T03:31:22.317Z,93.07
2022-07-31T03:33:49.057Z,93.40
2022-07-31T03:36:16.108Z,92.59
2022-07-31T03:38:46.489Z,92.79
2022-07-31T03:41:16.153Z,92.53
2022-07-31T03:43:47.781Z,91.55
2022-07-31T03:46:20.566Z,91.19
2022-07-31T03:48:47.994Z,90.79
2022-07-31T03:51:15.982Z,90.38
2022-07-31T03:53:44.208Z,91.05
2022-07-31T03:56:11.844Z,92.08
2022-07-31T03:58:39.029Z,92.69
2022-07-31T04:01:08.929Z,91.95
2022-07-31T04:03:38.926Z,91.42
2022-07-31T04:06:05.796Z,91.98
2022-07-31T04:08:34.073Z,93.31
2022-07-31T04:11:00.920Z,93.46
2022-07-31T04:13:28.550Z,94.36
2022-07-31T04:15:55.364Z,93.24
2022-07-31T04:18:22.116Z,93.34
2022-07-31T04:20:48.937Z,92.68
2022-07-31T04:23:16.773Z,92.77
2022-07-31T04:25:43.560Z,92.01
2022-07-31T04:28:10.381Z,92.35
2022-07-31T04:30:37.834Z,92.00
2022-07-31T04:33:04.671Z,92.22
2022-07-31T04:35:31.437Z,92.23
2022-07-31T04:37:58.194Z,92.40
2022-07-31T04:40:26.467Z,92.43
2022-07-31T04:42:56.829Z,92.63
2022-07-31T04:45:23.634Z,92.44
2022-07-31T04:47:50.529Z,92.75
2022-07-31T04:50:17.362Z,93.14
2022-07-31T04:52:44.131Z,92.89
2022-07-31T04:55:10.979Z,93.28
2022-07-31T04:57:37.940Z,93.20
2022-07-31T05:00:09.600Z,92.94
2022-07-31T05:02:37.332Z,92.18
2022-07-31T05:05:04.975Z,91.80
2022-07-31T05:07:31.721Z,91.36
2022-07-31T05:09:58.848Z,91.74
2022-07-31T05:12:26.224Z,92.37
2022-07-31T05:14:53.612Z,92.20
2022-07-31T05:17:20.614Z,92.35
2022-07-31T05:19:47.459Z,92.18
2022-07-31T05:22:14.290Z,92.56
2022-07-31T05:24:43.124Z,92.62
2022-07-31T05:27:09.946Z,92.33
2022-07-31T05:29:36.751Z,92.22
2022-07-31T05:32:03.729Z,92.22
2022-07-31T05:34:30.904Z,92.17
2022-07-31T05:37:01.511Z,91.88
2022-07-31T05:39:29.250Z,93.11
2022-07-31T05:41:56.074Z,93.47
2022-07-31T05:44:22.931Z,92.58
2022-07-31T05:49:16.365Z,92.11
2022-07-31T05:51:45.590Z,91.78
2022-07-31T05:54:12.400Z,91.54
2022-07-31T05:56:39.168Z,91.50
2022-07-31T05:59:05.965Z,90.87
2022-07-31T06:01:32.863Z,90.94
2022-07-31T06:03:59.717Z,90.18
2022-07-31T06:06:26.506Z,89.46
2022-07-31T06:08:53.340Z,90.04
2022-07-31T06:11:20.567Z,86.69
2022-07-31T06:13:47.401Z,86.73
2022-07-31T06:16:15.436Z,87.59
2022-07-31T06:18:42.869Z,86.34
2022-07-31T06:21:09.952Z,85.95
2022-07-31T06:23:37.013Z,85.85
2022-07-31T06:26:04.321Z,86.50
2022-07-31T06:28:47.976Z,86.80
2022-07-31T06:31:20.839Z,86.02
2022-07-31T06:33:48.860Z,86.77
2022-07-31T06:36:18.431Z,85.39
2022-07-31T06:38:46.133Z,85.86
2022-07-31T06:41:36.352Z,85.06
2022-07-31T06:44:03.661Z,84.57
2022-07-31T06:46:30.473Z,83.14
2022-07-31T06:48:57.545Z,82.48
2022-07-31T06:51:32.347Z,82.93
2022-07-31T06:54:00.762Z,81.98
2022-07-31T06:56:29.161Z,82.21
2022-07-31T06:58:56.369Z,81.37
2022-07-31T07:01:23.354Z,79.48
2022-07-31T07:03:50.519Z,79.14
2022-07-31T07:06:18.282Z,80.25
2022-07-31T07:08:45.835Z,80.90
2022-07-31T07:11:12.932Z,80.75
2022-07-31T07:13:45.829Z,80.16
2022-07-31T07:16:14.449Z,80.00
2022-07-31T07:18:41.939Z,80.24
2022-07-31T07:21:09.057Z,79.87
2022-07-31T07:23:36.025Z,80.28
2022-07-31T07:26:03.480Z,79.95
2022-07-31T07:28:31.413Z,79.53
2022-07-31T07:30:58.597Z,79.32
2022-07-31T07:33:40.651Z,79.12
2022-07-31T07:36:23.864Z,79.43
2022-07-31T07:38:55.430Z,79.62
2022-07-31T07:41:24.061Z,78.86
2022-07-31T07:43:51.697Z,79.75
2022-07-31T07:46:21.081Z,77.57
2022-07-31T07:48:49.254Z,77.58
2022-07-31T07:51:16.212Z,75.56
2022-07-31T07:53:42.998Z,76.07
2022-07-31T07:56:09.782Z,74.93
2022-07-31T07:58:36.580Z,73.35
2022-07-31T08:01:03.567Z,63.93
2022-07-31T08:03:49.331Z,65.42
2022-07-31T08:06:17.201Z,59.10
2022-07-31T08:08:44.055Z,60.88
2022-07-31T08:11:10.904Z,58.37
2022-07-31T08:13:49.342Z,59.59
2022-07-31T08:16:17.658Z,55.51
2022-07-31T08:18:44.529Z,53.98
2022-07-31T08:21:11.537Z,54.28
2022-07-31T08:23:38.589Z,53.82
2022-07-31T08:26:08.386Z,51.72
2022-07-31T08:28:36.254Z,50.29
2022-07-31T08:31:03.419Z,48.30
2022-07-31T08:33:30.370Z,46.18
2022-07-31T08:35:57.155Z,48.44
2022-07-31T08:38:24.212Z,47.73
2022-07-31T08:40:51.024Z,46.32
2022-07-31T08:46:05.257Z,44.71
2022-07-31T08:48:33.445Z,45.61
2022-07-31T08:51:03.853Z,44.76
2022-07-31T08:53:33.176Z,43.40
2022-07-31T08:56:00.628Z,42.06
2022-07-31T08:58:27.415Z,39.68
2022-07-31T09:00:54.980Z,40.22
2022-07-31T09:03:21.898Z,40.67
2022-07-31T09:05:49.048Z,39.37
2022-07-31T09:08:15.900Z,39.02
2022-07-31T09:10:47.730Z,39.64
2022-07-31T09:13:18.738Z,38.77
2022-07-31T09:15:46.528Z,39.01
2022-07-31T09:18:17.829Z,38.84
2022-07-31T09:21:05.033Z,38.99
2022-07-31T09:23:34.951Z,38.66
2022-07-31T09:26:05.609Z,37.66
2022-07-31T09:28:39.248Z,37.03
2022-07-31T09:31:08.879Z,37.63
2022-07-31T09:33:42.310Z,37.45
2022-07-31T09:36:10.556Z,37.61
2022-07-31T09:38:42.142Z,37.24
2022-07-31T09:41:56.671Z,37.21
2022-07-31T09:44:09.876Z,37.07
2022-07-31T09:46:47.040Z,37.30
2022-07-31T09:49:14.904Z,36.60
2022-07-31T09:51:47.181Z,37.09
2022-07-31T09:54:24.530Z,36.48
2022-07-31T09:56:51.625Z,36.53
2022-07-31T09:59:18.777Z,34.84
2022-07-31T10:01:49.374Z,36.25
2022-07-31T10:04:21.585Z,34.92
2022-07-31T10:06:51.237Z,34.62
2022-07-31T10:09:21.897Z,34.85
2022-07-31T10:11:50.580Z,35.15
2022-07-31T10:14:32.459Z,33.82
2022-07-31T10:17:04.961Z,33.78
2022-07-31T10:19:38.402Z,34.33
2022-07-31T10:22:06.938Z,33.81
2022-07-31T10:24:41.058Z,34.93
2022-07-31T10:27:09.810Z,35.13
2022-07-31T10:29:39.433Z,35.01
2022-07-31T10:32:09.877Z,34.94
2022-07-31T10:34:37.476Z,35.72
2022-07-31T10:37:18.817Z,35.24
2022-07-31T10:40:11.358Z,34.26
2022-07-31T10:42:52.987Z,35.77
2022-07-31T10:45:19.861Z,34.46
2022-07-31T10:48:00.809Z,35.02
2022-07-31T10:50:30.597Z,36.00
2022-07-31T10:53:15.480Z,35.80
2022-07-31T10:55:43.544Z,35.50
2022-07-31T10:58:19.364Z,33.88
2022-07-31T11:00:46.188Z,34.83
2022-07-31T11:03:22.425Z,34.21
2022-07-31T11:06:00.829Z,32.86
2022-07-31T11:08:28.574Z,34.59
2022-07-31T11:10:57.418Z,35.63
2022-07-31T11:13:33.623Z,33.90
2022-07-31T11:16:06.089Z,31.86
2022-07-31T11:18:34.663Z,32.23
2022-07-31T11:21:22.422Z,33.01
2022-07-31T11:23:56.179Z,32.16
2022-07-31T11:26:33.727Z,32.89
2022-07-31T11:30:00.679Z,33.56
2022-07-31T11:32:01.846Z,33.51
2022-07-31T11:34:28.593Z,32.54
2022-07-31T11:36:55.437Z,32.03
2022-07-31T11:39:28.321Z,32.07
2022-07-31T11:42:07.413Z,29.25
2022-07-31T11:44:35.196Z,29.97
2022-07-31T11:47:02.489Z,30.98
2022-07-31T11:49:41.687Z,29.77
2022-07-31T11:52:30.776Z,30.42
2022-07-31T11:55:09.599Z,30.26
2022-07-31T11:57:51.762Z,29.31
2022-07-31T12:00:26.711Z,30.16
2022-07-31T12:02:58.111Z,29.84
2022-07-31T12:05:38.636Z,29.51
2022-07-31T12:08:08.109Z,29.02
2022-07-31T12:10:35.519Z,29.58
2022-07-31T12:13:02.963Z,28.75
2022-07-31T12:15:29.892Z,29.06
2022-07-31T12:18:05.498Z,28.23
2022-07-31T12:20:36.254Z,28.94
2022-07-31T12:23:05.629Z,29.66
2022-07-31T12:25:45.714Z,28.61
2022-07-31T12:28:14.612Z,30.44
2022-07-31T12:30:42.872Z,28.84
2022-07-31T12:33:11.556Z,28.29
2022-07-31T12:35:56.475Z,28.09
2022-07-31T12:38:45.551Z,29.22
2022-07-31T12:41:13.865Z,28.37
2022-07-31T12:43:50.018Z,29.06
2022-07-31T12:46:37.959Z,28.57
2022-07-31T12:49:06.737Z,28.91
2022-07-31T12:51:44.922Z,28.24
2022-07-31T12:54:16.033Z,29.01
2022-07-31T12:56:43.406Z,28.29
2022-07-31T12:59:12.252Z,29.83
2022-07-31T13:01:39.471Z,29.68
2022-07-31T13:04:07.906Z,29.16
2022-07-31T13:06:45.765Z,29.02
2022-07-31T13:09:12.570Z,30.38
2022-07-31T13:11:46.536Z,28.81
2022-07-31T13:14:20.065Z,30.14
2022-07-31T13:16:48.574Z,30.05
2022-07-31T13:19:15.619Z,29.04
2022-07-31T13:21:49.065Z,27.85
2022-07-31T13:24:21.206Z,28.82
2022-07-31T13:26:49.526Z,28.49
2022-07-31T13:29:17.343Z,28.61
2022-07-31T13:31:44.530Z,28.78
2022-07-31T13:34:12.128Z,29.19
2022-07-31T13:36:39.925Z,28.70
2022-07-31T13:39:10.892Z,29.14
2022-07-31T13:41:39.485Z,28.51
2022-07-31T13:44:07.686Z,27.57
2022-07-31T13:46:35.136Z,28.18
2022-07-31T13:49:03.199Z,27.74
2022-07-31T13:51:30.291Z,27.47
2022-07-31T13:53:57.327Z,27.70
2022-07-31T13:56:41.762Z,26.97
2022-07-31T13:59:11.794Z,27.99
2022-07-31T14:02:03.188Z,27.15
2022-07-31T14:04:31.391Z,27.03
2022-07-31T14:07:03.362Z,27.33
2022-07-31T14:09:31.627Z,26.51
2022-07-31T14:11:58.450Z,26.43
2022-07-31T14:14:25.439Z,25.85
2022-07-31T14:16:52.371Z,26.20
2022-07-31T14:19:20.823Z,25.40
2022-07-31T14:21:56.235Z,24.62
2022-07-31T14:24:36.958Z,24.83
2022-07-31T14:27:04.411Z,24.76
2022-07-31T14:29:31.247Z,25.67
2022-07-31T14:32:03.258Z,25.65
2022-07-31T14:34:35.514Z,25.93
2022-07-31T14:37:02.754Z,25.72
2022-07-31T14:39:30.158Z,26.48
2022-07-31T14:41:56.982Z,25.93
2022-07-31T14:44:23.916Z,26.23
2022-07-31T14:46:56.278Z,26.83
2022-07-31T14:49:23.194Z,26.81
2022-07-31T14:51:50.039Z,27.60
2022-07-31T14:54:16.914Z,29.32
2022-07-31T14:57:00.646Z,28.70
2022-07-31T14:59:32.046Z,29.81
2022-07-31T15:01:59.250Z,30.36
2022-07-31T15:04:26.495Z,29.91
2022-07-31T15:07:12.674Z,29.01
2022-07-31T15:09:40.530Z,28.52
2022-07-31T15:12:07.968Z,31.57
2022-07-31T15:14:35.231Z,29.88
2022-07-31T15:17:02.132Z,28.30
2022-07-31T15:19:29.038Z,28.73
2022-07-31T15:22:10.283Z,29.83
2022-07-31T15:24:48.241Z,27.89
2022-07-31T15:27:18.717Z,28.68
2022-07-31T15:30:03.611Z,27.49
2022-07-31T15:32:32.769Z,28.26
2022-07-31T15:34:59.616Z,28.17
2022-07-31T15:37:26.421Z,29.05
2022-07-31T15:40:02.809Z,29.08
2022-07-31T15:42:38.310Z,28.45
2022-07-31T15:45:07.691Z,29.17
2022-07-31T15:47:34.823Z,29.53
2022-07-31T15:50:01.729Z,29.93
2022-07-31T15:52:28.611Z,30.31
2022-07-31T15:54:55.546Z,29.71
2022-07-31T15:57:23.702Z,27.24
2022-07-31T15:59:54.393Z,28.35
2022-07-31T16:02:23.633Z,27.25
2022-07-31T16:04:54.849Z,27.25
2022-07-31T16:08:30.115Z,26.91
2022-07-31T16:10:16.540Z,27.26
2022-07-31T16:12:47.257Z,26.66
2022-07-31T16:15:16.634Z,25.74
2022-07-31T16:17:45.002Z,25.72
2022-07-31T16:20:25.802Z,25.97
2022-07-31T16:23:02.569Z,25.61
2022-07-31T16:25:32.181Z,25.13
2022-07-31T16:28:02.721Z,25.09
2022-07-31T16:30:29.581Z,25.41
2022-07-31T16:32:56.658Z,26.51
2022-07-31T16:35:26.417Z,26.67
2022-07-31T16:37:54.389Z,26.75
2022-07-31T16:40:29.166Z,25.94
2022-07-31T16:43:47.560Z,26.71
2022-07-31T16:45:51.036Z,26.37
2022-07-31T16:48:21.000Z,26.67
2022-07-31T16:50:54.442Z,26.75
2022-07-31T16:54:10.367Z,26.91
2022-07-31T16:56:15.413Z,27.08
2022-07-31T16:58:43.850Z,28.09
2022-07-31T17:01:57.394Z,28.44
2022-07-31T17:04:01.844Z,28.43
2022-07-31T17:06:38.548Z,29.96
2022-07-31T17:09:17.446Z,30.45
2022-07-31T17:11:53.183Z,30.30
2022-07-31T17:14:23.221Z,31.40
2022-07-31T17:16:52.051Z,31.45
2022-07-31T17:19:35.884Z,31.84
2022-07-31T17:22:04.044Z,31.93
2022-07-31T17:24:32.049Z,32.17
2022-07-31T17:26:59.883Z,32.49
2022-07-31T17:29:26.737Z,32.55
2022-07-31T17:31:53.570Z,32.73
2022-07-31T17:34:20.403Z,33.05
2022-07-31T17:36:50.240Z,34.00
2022-07-31T17:39:17.268Z,34.73
2022-07-31T17:41:44.330Z,34.21
2022-07-31T17:44:11.178Z,34.48
2022-07-31T17:46:48.117Z,34.90
2022-07-31T17:49:19.437Z,36.35
2022-07-31T17:51:58.935Z,35.09
2022-07-31T17:54:31.719Z,37.12
2022-07-31T17:56:59.873Z,36.70
2022-07-31T17:59:27.704Z,36.33
2022-07-31T18:02:01.118Z,37.47
2022-07-31T18:04:34.209Z,38.35
2022-07-31T18:07:04.496Z,39.53
2022-07-31T18:09:32.363Z,41.08
2022-07-31T18:12:02.988Z,40.89
2022-07-31T18:14:30.178Z,41.59
2022-07-31T18:16:57.044Z,41.86
2022-07-31T18:19:23.971Z,41.57
2022-07-31T18:21:52.217Z,41.37
2022-07-31T18:24:20.883Z,41.14
2022-07-31T18:26:48.053Z,41.50
2022-07-31T18:29:17.112Z,42.73
2022-07-31T18:31:44.822Z,42.83
2022-07-31T18:34:13.118Z,43.29
2022-07-31T18:36:40.530Z,43.34
2022-07-31T18:39:07.760Z,44.20
2022-07-31T18:41:34.673Z,45.02
2022-07-31T18:44:02.079Z,45.07
2022-07-31T18:46:29.140Z,45.31
2022-07-31T18:48:56.785Z,45.83
2022-07-31T18:51:25.606Z,45.72
2022-07-31T18:53:54.759Z,46.47
2022-07-31T18:56:24.045Z,46.49
2022-07-31T18:58:52.210Z,47.55
2022-07-31T19:01:19.161Z,48.45
2022-07-31T19:03:46.045Z,48.80
2022-07-31T19:06:13.002Z,49.60
2022-07-31T19:08:45.046Z,49.88
2022-07-31T19:11:12.601Z,50.26
2022-07-31T19:13:39.543Z,49.66
2022-07-31T19:16:06.913Z,50.49
2022-07-31T19:18:34.221Z,50.68
2022-07-31T19:21:23.619Z,51.67
2022-07-31T19:23:49.751Z,52.55
2022-07-31T19:26:16.789Z,52.81
2022-07-31T19:28:43.936Z,53.56
2022-07-31T19:31:13.419Z,54.21
2022-07-31T19:33:41.234Z,54.03
2022-07-31T19:36:10.754Z,54.46
2022-07-31T19:38:37.654Z,55.29
2022-07-31T19:41:04.626Z,55.58
2022-07-31T19:43:31.638Z,55.66
2022-07-31T19:46:10.042Z,55.76
2022-07-31T19:48:44.481Z,56.24
2022-07-31T19:51:13.315Z,56.58
2022-07-31T19:53:41.822Z,56.85
2022-07-31T19:56:10.791Z,57.51
2022-07-31T19:58:41.341Z,57.29
2022-07-31T20:01:09.992Z,57.61
2022-07-31T20:03:37.165Z,58.43
2022-07-31T20:08:36.859Z,58.32
2022-07-31T20:11:05.459Z,58.95
2022-07-31T20:13:34.457Z,59.78
2022-07-31T20:16:01.763Z,59.72
2022-07-31T20:18:29.404Z,59.42
2022-07-31T20:21:04.914Z,59.75
2022-07-31T20:23:34.429Z,60.41
2022-07-31T20:26:01.628Z,60.42
2022-07-31T20:28:28.603Z,60.75
2022-07-31T20:30:55.579Z,61.60
2022-07-31T20:33:22.584Z,61.64
2022-07-31T20:35:50.256Z,62.26
2022-07-31T20:38:22.445Z,63.97
2022-07-31T20:40:54.545Z,63.62
2022-07-31T20:43:27.368Z,65.16
2022-07-31T20:45:59.638Z,65.59
2022-07-31T20:48:32.598Z,65.29
2022-07-31T20:51:02.620Z,65.27
2022-07-31T20:53:35.195Z,66.71
2022-07-31T20:56:02.309Z,66.72
2022-07-31T20:58:29.234Z,66.35
2022-07-31T21:00:56.344Z,66.42
2022-07-31T21:03:23.525Z,66.43
2022-07-31T21:05:50.495Z,66.60
2022-07-31T21:08:18.718Z,67.03
2022-07-31T21:10:45.755Z,67.79
2022-07-31T21:13:13.114Z,67.89
2022-07-31T21:15:43.129Z,68.24
2022-07-31T21:18:17.124Z,68.36
2022-07-31T21:20:50.195Z,70.46
2022-07-31T21:23:20.287Z,71.64
2022-07-31T21:25:47.394Z,71.22
2022-07-31T21:28:14.694Z,70.73
2022-07-31T21:30:41.810Z,70.54
2022-07-31T21:33:09.888Z,70.00
2022-07-31T21:35:40.072Z,70.00
2022-07-31T21:38:12.665Z,70.14
2022-07-31T21:40:40.833Z,69.59
2022-07-31T21:43:09.246Z,69.42
2022-07-31T21:45:50.622Z,71.00
2022-07-31T21:48:25.660Z,71.95
2022-07-31T21:50:54.452Z,72.84
2022-07-31T21:53:21.700Z,71.84
2022-07-31T21:55:48.792Z,73.08
2022-07-31T21:58:16.116Z,72.27
2022-07-31T22:00:44.596Z,71.69
2022-07-31T22:03:11.893Z,71.88
2022-07-31T22:05:57.629Z,71.68
2022-07-31T22:08:24.661Z,71.80
2022-07-31T22:10:52.416Z,71.81
2022-07-31T22:13:20.036Z,72.19
2022-07-31T22:15:58.906Z,73.58
2022-07-31T22:18:33.603Z,72.90
2022-07-31T22:21:05.188Z,73.35
2022-07-31T22:23:32.616Z,73.07
2022-07-31T22:26:00.172Z,73.21
2022-07-31T22:28:28.261Z,73.02
2022-07-31T22:30:56.371Z,73.40
2022-07-31T22:33:24.066Z,73.42
2022-07-31T22:35:59.803Z,73.31
2022-07-31T22:38:29.353Z,73.61
2022-07-31T22:40:59.552Z,73.67
2022-07-31T22:44:12.897Z,73.92
2022-07-31T22:46:15.048Z,75.09
2022-07-31T22:48:42.246Z,76.37
2022-07-31T22:51:10.834Z,75.46
2022-07-31T22:53:42.514Z,74.85
2022-07-31T22:56:09.388Z,74.74
2022-07-31T22:58:41.366Z,74.62
2022-07-31T23:01:08.190Z,74.77
2022-07-31T23:03:35.030Z,74.45
2022-07-31T23:06:02.626Z,74.98
2022-07-31T23:08:54.623Z,74.92
2022-07-31T23:11:24.787Z,75.25
2022-07-31T23:13:52.143Z,75.47
2022-07-31T23:16:20.591Z,76.03
2022-07-31T23:18:48.510Z,77.18
2022-07-31T23:21:15.623Z,76.25
2022-07-31T23:23:48.998Z,76.36
2022-07-31T23:26:19.526Z,76.29
2022-07-31T23:28:47.740Z,76.18
2022-07-31T23:31:17.892Z,75.74
2022-07-31T23:33:45.851Z,75.92
2022-07-31T23:36:13.631Z,75.81
2022-07-31T23:38:41.657Z,78.58
2022-07-31T23:41:09.417Z,80.39
2022-07-31T23:43:39.200Z,79.81
2022-07-31T23:46:08.914Z,78.50
2022-07-31T23:48:36.089Z,78.43
2022-07-31T23:51:03.225Z,78.22
2022-07-31T23:53:30.147Z,77.71
2022-07-31T23:56:03.338Z,78.26
2022-07-31T23:58:31.817Z,78.80
